sensor_id;sensor_type;location;lat;lon;timestamp;P1;durP1;ratioP1;P2;durP2;ratioP2
8632;SDS011;4354;49.832;10.746;2022-08-23T00:01:40;6.13;;;4.97;;
8632;SDS011;4354;49.832;10.746;2022-08-23T00:04:13;5.27;;;4.77;;
8632;SDS011;4354;49.832;10.746;2022-08-23T00:06:45;5.33;;;4.83;;
8632;SDS011;4354;49.832;10.746;2022-08-23T00:09:14;8.57;;;5.10;;
8632;SDS011;4354;49.832;10.746;2022-08-23T00:14:14;5.43;;;4.93;;
8632;SDS011;4354;49.832;10.746;2022-08-23T00:16:42;7.27;;;5.27;;
8632;SDS011;4354;49.832;10.746;2022-08-23T00:19:10;7.37;;;4.57;;
8632;SDS011;4354;49.832;10.746;2022-08-23T00:21:40;5.27;;;4.60;;
8632;SDS011;4354;49.832;10.746;2022-08-23T00:24:08;6.87;;;5.43;;
8632;SDS011;4354;49.832;10.746;2022-08-23T00:29:32;6.33;;;5.23;;
8632;SDS011;4354;49.832;10.746;2022-08-23T00:32:03;6.17;;;5.63;;
8632;SDS011;4354;49.832;10.746;2022-08-23T00:34:35;6.03;;;5.23;;
8632;SDS011;4354;49.832;10.746;2022-08-23T00:37:03;5.73;;;5.23;;
8632;SDS011;4354;49.832;10.746;2022-08-23T00:39:31;5.93;;;5.00;;
8632;SDS011;4354;49.832;10.746;2022-08-23T00:41:59;7.33;;;5.77;;
8632;SDS011;4354;49.832;10.746;2022-08-23T00:44:56;6.17;;;5.17;;
8632;SDS011;4354;49.832;10.746;2022-08-23T00:47:44;9.03;;;5.50;;
8632;SDS011;4354;49.832;10.746;2022-08-23T00:53:04;6.30;;;5.67;;
8632;SDS011;4354;49.832;10.746;2022-08-23T00:55:32;6.83;;;5.30;;
8632;SDS011;4354;49.832;10.746;2022-08-23T00:58:03;6.90;;;5.93;;
8632;SDS011;4354;49.832;10.746;2022-08-23T01:00:30;6.30;;;5.53;;
8632;SDS011;4354;49.832;10.746;2022-08-23T01:02:57;9.50;;;6.07;;
8632;SDS011;4354;49.832;10.746;2022-08-23T01:05:35;6.20;;;5.40;;
8632;SDS011;4354;49.832;10.746;2022-08-23T01:08:13;9.20;;;5.23;;
8632;SDS011;4354;49.832;10.746;2022-08-23T01:10:41;6.30;;;5.50;;
8632;SDS011;4354;49.832;10.746;2022-08-23T01:13:14;5.70;;;5.07;;
8632;SDS011;4354;49.832;10.746;2022-08-23T01:15:53;5.93;;;5.33;;
8632;SDS011;4354;49.832;10.746;2022-08-23T01:18:41;6.20;;;5.57;;
8632;SDS011;4354;49.832;10.746;2022-08-23T01:21:19;9.73;;;5.67;;
8632;SDS011;4354;49.832;10.746;2022-08-23T01:23:57;6.53;;;5.47;;
8632;SDS011;4354;49.832;10.746;2022-08-23T01:26:28;7.10;;;5.53;;
8632;SDS011;4354;49.832;10.746;2022-08-23T01:29:01;6.10;;;5.27;;
8632;SDS011;4354;49.832;10.746;2022-08-23T01:31:30;6.00;;;5.40;;
8632;SDS011;4354;49.832;10.746;2022-08-23T01:34:03;6.17;;;5.60;;
8632;SDS011;4354;49.832;10.746;2022-08-23T01:36:35;6.63;;;5.50;;
8632;SDS011;4354;49.832;10.746;2022-08-23T01:39:02;6.13;;;5.53;;
8632;SDS011;4354;49.832;10.746;2022-08-23T01:41:30;10.83;;;6.20;;
8632;SDS011;4354;49.832;10.746;2022-08-23T01:43:57;5.83;;;5.27;;
8632;SDS011;4354;49.832;10.746;2022-08-23T01:46:24;6.57;;;5.90;;
8632;SDS011;4354;49.832;10.746;2022-08-23T01:48:52;7.17;;;5.67;;
8632;SDS011;4354;49.832;10.746;2022-08-23T01:51:23;7.37;;;6.17;;
8632;SDS011;4354;49.832;10.746;2022-08-23T01:53:51;6.23;;;5.67;;
8632;SDS011;4354;49.832;10.746;2022-08-23T01:56:19;6.57;;;5.70;;
8632;SDS011;4354;49.832;10.746;2022-08-23T01:59:03;6.60;;;6.00;;
8632;SDS011;4354;49.832;10.746;2022-08-23T02:01:30;7.50;;;5.30;;
8632;SDS011;4354;49.832;10.746;2022-08-23T02:03:57;6.90;;;6.20;;
8632;SDS011;4354;49.832;10.746;2022-08-23T02:06:30;6.40;;;5.53;;
8632;SDS011;4354;49.832;10.746;2022-08-23T02:09:01;6.73;;;6.03;;
8632;SDS011;4354;49.832;10.746;2022-08-23T02:11:30;6.80;;;6.20;;
8632;SDS011;4354;49.832;10.746;2022-08-23T02:14:03;7.13;;;6.40;;
8632;SDS011;4354;49.832;10.746;2022-08-23T02:16:38;7.97;;;6.70;;
8632;SDS011;4354;49.832;10.746;2022-08-23T02:19:16;7.43;;;6.73;;
8632;SDS011;4354;49.832;10.746;2022-08-23T02:21:43;7.00;;;6.40;;
8632;SDS011;4354;49.832;10.746;2022-08-23T02:24:13;7.30;;;6.63;;
8632;SDS011;4354;49.832;10.746;2022-08-23T02:26:43;7.30;;;6.57;;
8632;SDS011;4354;49.832;10.746;2022-08-23T02:29:17;7.37;;;6.77;;
8632;SDS011;4354;49.832;10.746;2022-08-23T02:31:47;7.33;;;6.70;;
8632;SDS011;4354;49.832;10.746;2022-08-23T02:34:16;7.50;;;6.77;;
8632;SDS011;4354;49.832;10.746;2022-08-23T02:37:02;7.73;;;7.13;;
8632;SDS011;4354;49.832;10.746;2022-08-23T02:39:30;8.47;;;7.27;;
8632;SDS011;4354;49.832;10.746;2022-08-23T02:41:57;7.47;;;6.83;;
8632;SDS011;4354;49.832;10.746;2022-08-23T02:44:26;8.43;;;7.50;;
8632;SDS011;4354;49.832;10.746;2022-08-23T02:46:54;8.40;;;7.30;;
8632;SDS011;4354;49.832;10.746;2022-08-23T02:49:21;8.37;;;7.50;;
8632;SDS011;4354;49.832;10.746;2022-08-23T02:51:48;8.60;;;7.80;;
8632;SDS011;4354;49.832;10.746;2022-08-23T02:54:15;8.00;;;7.30;;
8632;SDS011;4354;49.832;10.746;2022-08-23T02:56:42;8.57;;;7.77;;
8632;SDS011;4354;49.832;10.746;2022-08-23T02:59:09;8.70;;;7.80;;
8632;SDS011;4354;49.832;10.746;2022-08-23T03:01:36;7.77;;;7.10;;
8632;SDS011;4354;49.832;10.746;2022-08-23T03:04:05;10.40;;;7.10;;
8632;SDS011;4354;49.832;10.746;2022-08-23T03:06:33;7.93;;;7.23;;
8632;SDS011;4354;49.832;10.746;2022-08-23T03:09:02;7.80;;;7.10;;
8632;SDS011;4354;49.832;10.746;2022-08-23T03:11:30;8.10;;;7.30;;
8632;SDS011;4354;49.832;10.746;2022-08-23T03:13:57;7.33;;;6.63;;
8632;SDS011;4354;49.832;10.746;2022-08-23T03:16:24;7.47;;;6.77;;
8632;SDS011;4354;49.832;10.746;2022-08-23T03:18:51;7.60;;;6.90;;
8632;SDS011;4354;49.832;10.746;2022-08-23T03:21:18;8.40;;;7.60;;
8632;SDS011;4354;49.832;10.746;2022-08-23T03:23:46;7.83;;;7.13;;
8632;SDS011;4354;49.832;10.746;2022-08-23T03:26:14;7.63;;;7.03;;
8632;SDS011;4354;49.832;10.746;2022-08-23T03:28:41;11.07;;;7.83;;
8632;SDS011;4354;49.832;10.746;2022-08-23T03:31:10;10.07;;;7.83;;
8632;SDS011;4354;49.832;10.746;2022-08-23T03:33:37;8.73;;;7.33;;
8632;SDS011;4354;49.832;10.746;2022-08-23T03:36:05;11.27;;;8.00;;
8632;SDS011;4354;49.832;10.746;2022-08-23T03:38:34;10.47;;;7.40;;
8632;SDS011;4354;49.832;10.746;2022-08-23T03:41:04;7.83;;;7.03;;
8632;SDS011;4354;49.832;10.746;2022-08-23T03:43:32;7.83;;;7.03;;
8632;SDS011;4354;49.832;10.746;2022-08-23T03:45:59;8.53;;;7.20;;
8632;SDS011;4354;49.832;10.746;2022-08-23T03:48:26;7.40;;;6.70;;
8632;SDS011;4354;49.832;10.746;2022-08-23T03:50:53;7.70;;;7.00;;
8632;SDS011;4354;49.832;10.746;2022-08-23T03:53:20;7.33;;;6.73;;
8632;SDS011;4354;49.832;10.746;2022-08-23T03:55:49;8.73;;;7.53;;
8632;SDS011;4354;49.832;10.746;2022-08-23T03:58:18;8.77;;;7.27;;
8632;SDS011;4354;49.832;10.746;2022-08-23T04:00:47;8.13;;;7.43;;
8632;SDS011;4354;49.832;10.746;2022-08-23T04:03:14;7.77;;;7.00;;
8632;SDS011;4354;49.832;10.746;2022-08-23T04:05:41;8.80;;;7.67;;
8632;SDS011;4354;49.832;10.746;2022-08-23T04:08:09;7.90;;;7.20;;
8632;SDS011;4354;49.832;10.746;2022-08-23T04:10:36;7.97;;;7.27;;
8632;SDS011;4354;49.832;10.746;2022-08-23T04:13:05;7.67;;;6.93;;
8632;SDS011;4354;49.832;10.746;2022-08-23T04:15:34;7.80;;;7.10;;
8632;SDS011;4354;49.832;10.746;2022-08-23T04:18:03;9.10;;;7.47;;
8632;SDS011;4354;49.832;10.746;2022-08-23T04:20:31;8.33;;;7.23;;
8632;SDS011;4354;49.832;10.746;2022-08-23T04:22:58;9.27;;;7.00;;
8632;SDS011;4354;49.832;10.746;2022-08-23T04:25:26;7.73;;;7.03;;
8632;SDS011;4354;49.832;10.746;2022-08-23T04:28:00;7.87;;;7.17;;
8632;SDS011;4354;49.832;10.746;2022-08-23T04:30:28;8.77;;;7.57;;
8632;SDS011;4354;49.832;10.746;2022-08-23T04:32:56;8.50;;;7.33;;
8632;SDS011;4354;49.832;10.746;2022-08-23T04:35:23;8.43;;;7.63;;
8632;SDS011;4354;49.832;10.746;2022-08-23T04:37:51;9.03;;;7.17;;
8632;SDS011;4354;49.832;10.746;2022-08-23T04:40:19;8.60;;;7.27;;
8632;SDS011;4354;49.832;10.746;2022-08-23T04:43:04;7.57;;;6.87;;
8632;SDS011;4354;49.832;10.746;2022-08-23T04:45:36;8.27;;;7.47;;
8632;SDS011;4354;49.832;10.746;2022-08-23T04:48:04;7.90;;;7.20;;
8632;SDS011;4354;49.832;10.746;2022-08-23T04:50:38;7.93;;;7.23;;
8632;SDS011;4354;49.832;10.746;2022-08-23T04:53:06;11.50;;;7.43;;
8632;SDS011;4354;49.832;10.746;2022-08-23T04:55:33;7.93;;;6.83;;
8632;SDS011;4354;49.832;10.746;2022-08-23T04:58:01;8.60;;;7.80;;
8632;SDS011;4354;49.832;10.746;2022-08-23T05:00:29;8.37;;;7.63;;
8632;SDS011;4354;49.832;10.746;2022-08-23T05:02:56;8.10;;;7.40;;
8632;SDS011;4354;49.832;10.746;2022-08-23T05:05:23;9.57;;;7.17;;
8632;SDS011;4354;49.832;10.746;2022-08-23T05:07:51;7.60;;;6.90;;
8632;SDS011;4354;49.832;10.746;2022-08-23T05:10:19;7.87;;;7.03;;
8632;SDS011;4354;49.832;10.746;2022-08-23T05:12:46;7.23;;;6.50;;
8632;SDS011;4354;49.832;10.746;2022-08-23T05:15:13;8.63;;;7.10;;
8632;SDS011;4354;49.832;10.746;2022-08-23T05:17:40;6.43;;;5.83;;
8632;SDS011;4354;49.832;10.746;2022-08-23T05:20:08;7.00;;;6.40;;
8632;SDS011;4354;49.832;10.746;2022-08-23T05:22:36;11.43;;;6.43;;
8632;SDS011;4354;49.832;10.746;2022-08-23T05:25:04;7.50;;;6.43;;
8632;SDS011;4354;49.832;10.746;2022-08-23T05:27:32;7.10;;;6.40;;
8632;SDS011;4354;49.832;10.746;2022-08-23T05:29:59;7.60;;;6.77;;
8632;SDS011;4354;49.832;10.746;2022-08-23T05:32:26;8.13;;;6.40;;
8632;SDS011;4354;49.832;10.746;2022-08-23T05:34:58;8.37;;;6.20;;
8632;SDS011;4354;49.832;10.746;2022-08-23T05:37:25;6.27;;;5.73;;
8632;SDS011;4354;49.832;10.746;2022-08-23T05:39:52;6.93;;;6.33;;
8632;SDS011;4354;49.832;10.746;2022-08-23T05:42:19;7.10;;;6.50;;
8632;SDS011;4354;49.832;10.746;2022-08-23T05:44:46;7.53;;;6.83;;
8632;SDS011;4354;49.832;10.746;2022-08-23T05:47:14;7.83;;;6.30;;
8632;SDS011;4354;49.832;10.746;2022-08-23T05:49:42;6.70;;;6.00;;
8632;SDS011;4354;49.832;10.746;2022-08-23T05:52:10;9.63;;;6.50;;
8632;SDS011;4354;49.832;10.746;2022-08-23T05:54:38;9.67;;;6.13;;
8632;SDS011;4354;49.832;10.746;2022-08-23T05:57:05;6.53;;;5.90;;
8632;SDS011;4354;49.832;10.746;2022-08-23T05:59:32;7.10;;;6.50;;
8632;SDS011;4354;49.832;10.746;2022-08-23T06:01:59;7.70;;;6.30;;
8632;SDS011;4354;49.832;10.746;2022-08-23T06:04:27;8.37;;;6.60;;
8632;SDS011;4354;49.832;10.746;2022-08-23T06:06:54;6.37;;;5.77;;
8632;SDS011;4354;49.832;10.746;2022-08-23T06:09:26;6.50;;;5.70;;
8632;SDS011;4354;49.832;10.746;2022-08-23T06:11:53;6.50;;;5.90;;
8632;SDS011;4354;49.832;10.746;2022-08-23T06:14:21;7.30;;;6.10;;
8632;SDS011;4354;49.832;10.746;2022-08-23T06:16:49;7.77;;;5.97;;
8632;SDS011;4354;49.832;10.746;2022-08-23T06:19:21;6.50;;;5.90;;
8632;SDS011;4354;49.832;10.746;2022-08-23T06:21:49;6.80;;;5.37;;
8632;SDS011;4354;49.832;10.746;2022-08-23T06:24:17;6.93;;;5.97;;
8632;SDS011;4354;49.832;10.746;2022-08-23T06:26:45;8.97;;;6.37;;
8632;SDS011;4354;49.832;10.746;2022-08-23T06:29:15;6.97;;;5.73;;
8632;SDS011;4354;49.832;10.746;2022-08-23T06:31:47;11.77;;;6.43;;
8632;SDS011;4354;49.832;10.746;2022-08-23T06:34:30;5.53;;;5.10;;
8632;SDS011;4354;49.832;10.746;2022-08-23T06:37:05;5.60;;;5.10;;
8632;SDS011;4354;49.832;10.746;2022-08-23T06:39:37;5.90;;;4.90;;
8632;SDS011;4354;49.832;10.746;2022-08-23T06:42:06;6.27;;;5.67;;
8632;SDS011;4354;49.832;10.746;2022-08-23T06:44:55;7.40;;;6.23;;
8632;SDS011;4354;49.832;10.746;2022-08-23T06:47:21;7.33;;;5.63;;
8632;SDS011;4354;49.832;10.746;2022-08-23T06:49:49;7.13;;;5.67;;
8632;SDS011;4354;49.832;10.746;2022-08-23T06:52:23;7.73;;;5.40;;
8632;SDS011;4354;49.832;10.746;2022-08-23T06:54:53;8.23;;;5.40;;
8632;SDS011;4354;49.832;10.746;2022-08-23T06:57:20;7.30;;;5.33;;
8632;SDS011;4354;49.832;10.746;2022-08-23T06:59:47;5.90;;;5.30;;
8632;SDS011;4354;49.832;10.746;2022-08-23T07:02:15;5.70;;;5.10;;
8632;SDS011;4354;49.832;10.746;2022-08-23T07:04:42;6.37;;;5.27;;
8632;SDS011;4354;49.832;10.746;2022-08-23T07:07:09;7.73;;;4.97;;
8632;SDS011;4354;49.832;10.746;2022-08-23T07:09:37;6.57;;;4.87;;
8632;SDS011;4354;49.832;10.746;2022-08-23T07:12:05;8.63;;;5.57;;
8632;SDS011;4354;49.832;10.746;2022-08-23T07:14:32;10.25;;;5.57;;
8632;SDS011;4354;49.832;10.746;2022-08-23T07:17:01;11.18;;;5.78;;
8632;SDS011;4354;49.832;10.746;2022-08-23T07:19:31;7.25;;;5.97;;
8632;SDS011;4354;49.832;10.746;2022-08-23T07:22:00;6.03;;;4.90;;
8632;SDS011;4354;49.832;10.746;2022-08-23T07:24:28;10.13;;;5.32;;
8632;SDS011;4354;49.832;10.746;2022-08-23T07:26:59;8.43;;;5.15;;
8632;SDS011;4354;49.832;10.746;2022-08-23T07:29:32;5.70;;;4.85;;
8632;SDS011;4354;49.832;10.746;2022-08-23T07:32:01;5.68;;;4.03;;
8632;SDS011;4354;49.832;10.746;2022-08-23T07:34:28;3.97;;;3.55;;
8632;SDS011;4354;49.832;10.746;2022-08-23T07:36:55;4.80;;;3.33;;
8632;SDS011;4354;49.832;10.746;2022-08-23T07:39:22;4.95;;;3.35;;
8632;SDS011;4354;49.832;10.746;2022-08-23T07:41:51;5.88;;;3.20;;
8632;SDS011;4354;49.832;10.746;2022-08-23T07:44:18;3.95;;;2.85;;
8632;SDS011;4354;49.832;10.746;2022-08-23T07:46:52;4.68;;;2.75;;
8632;SDS011;4354;49.832;10.746;2022-08-23T07:49:22;4.73;;;2.60;;
8632;SDS011;4354;49.832;10.746;2022-08-23T07:51:54;6.32;;;2.65;;
8632;SDS011;4354;49.832;10.746;2022-08-23T07:54:23;4.07;;;2.22;;
8632;SDS011;4354;49.832;10.746;2022-08-23T07:56:51;3.85;;;2.53;;
8632;SDS011;4354;49.832;10.746;2022-08-23T07:59:21;2.83;;;2.20;;
8632;SDS011;4354;49.832;10.746;2022-08-23T08:01:48;3.28;;;2.30;;
8632;SDS011;4354;49.832;10.746;2022-08-23T08:04:15;6.13;;;2.40;;
8632;SDS011;4354;49.832;10.746;2022-08-23T08:06:44;4.05;;;2.42;;
8632;SDS011;4354;49.832;10.746;2022-08-23T08:09:33;4.82;;;2.53;;
8632;SDS011;4354;49.832;10.746;2022-08-23T08:12:00;5.00;;;2.08;;
8632;SDS011;4354;49.832;10.746;2022-08-23T08:14:26;5.70;;;2.25;;
8632;SDS011;4354;49.832;10.746;2022-08-23T08:16:53;3.45;;;2.20;;
8632;SDS011;4354;49.832;10.746;2022-08-23T08:19:23;3.45;;;2.20;;
8632;SDS011;4354;49.832;10.746;2022-08-23T08:21:50;4.10;;;2.20;;
8632;SDS011;4354;49.832;10.746;2022-08-23T08:24:18;4.65;;;2.50;;
8632;SDS011;4354;49.832;10.746;2022-08-23T08:26:48;5.25;;;2.22;;
8632;SDS011;4354;49.832;10.746;2022-08-23T08:29:16;2.65;;;2.17;;
8632;SDS011;4354;49.832;10.746;2022-08-23T08:31:43;6.28;;;2.05;;
8632;SDS011;4354;49.832;10.746;2022-08-23T08:34:17;4.55;;;2.15;;
8632;SDS011;4354;49.832;10.746;2022-08-23T08:36:52;2.83;;;1.67;;
8632;SDS011;4354;49.832;10.746;2022-08-23T08:39:25;3.30;;;1.42;;
8632;SDS011;4354;49.832;10.746;2022-08-23T08:50:20;3.22;;;1.65;;
8632;SDS011;4354;49.832;10.746;2022-08-23T08:53:00;3.67;;;1.70;;
8632;SDS011;4354;49.832;10.746;2022-08-23T08:55:56;2.85;;;1.80;;
8632;SDS011;4354;49.832;10.746;2022-08-23T08:58:28;3.05;;;1.58;;
8632;SDS011;4354;49.832;10.746;2022-08-23T09:01:01;4.15;;;1.45;;
8632;SDS011;4354;49.832;10.746;2022-08-23T09:03:30;2.78;;;1.40;;
8632;SDS011;4354;49.832;10.746;2022-08-23T09:17:09;2.55;;;1.33;;
8632;SDS011;4354;49.832;10.746;2022-08-23T09:19:49;3.88;;;1.45;;
8632;SDS011;4354;49.832;10.746;2022-08-23T09:22:59;2.63;;;1.50;;
8632;SDS011;4354;49.832;10.746;2022-08-23T09:25:16;2.83;;;1.50;;
8632;SDS011;4354;49.832;10.746;2022-08-23T09:27:44;6.78;;;1.50;;
8632;SDS011;4354;49.832;10.746;2022-08-23T09:30:13;2.35;;;1.70;;
8632;SDS011;4354;49.832;10.746;2022-08-23T09:32:43;3.88;;;1.75;;
8632;SDS011;4354;49.832;10.746;2022-08-23T09:35:19;2.88;;;1.58;;
8632;SDS011;4354;49.832;10.746;2022-08-23T09:40:37;1.80;;;1.70;;
8632;SDS011;4354;49.832;10.746;2022-08-23T09:46:00;2.55;;;1.70;;
8632;SDS011;4354;49.832;10.746;2022-08-23T09:48:39;3.42;;;1.70;;
8632;SDS011;4354;49.832;10.746;2022-08-23T09:53:48;1.85;;;1.35;;
8632;SDS011;4354;49.832;10.746;2022-08-23T09:56:22;4.40;;;1.80;;
8632;SDS011;4354;49.832;10.746;2022-08-23T09:58:51;3.50;;;1.33;;
8632;SDS011;4354;49.832;10.746;2022-08-23T10:01:23;1.80;;;1.42;;
8632;SDS011;4354;49.832;10.746;2022-08-23T10:06:50;4.25;;;1.70;;
8632;SDS011;4354;49.832;10.746;2022-08-23T10:11:50;3.15;;;1.40;;
8632;SDS011;4354;49.832;10.746;2022-08-23T10:14:18;3.33;;;1.52;;
8632;SDS011;4354;49.832;10.746;2022-08-23T10:22:48;3.42;;;1.45;;
8632;SDS011;4354;49.832;10.746;2022-08-23T10:25:49;1.50;;;1.40;;
8632;SDS011;4354;49.832;10.746;2022-08-23T10:34:02;1.85;;;1.40;;
8632;SDS011;4354;49.832;10.746;2022-08-23T10:39:33;3.22;;;1.38;;
8632;SDS011;4354;49.832;10.746;2022-08-23T10:42:17;2.42;;;1.30;;
8632;SDS011;4354;49.832;10.746;2022-08-23T10:48:03;2.45;;;1.30;;
8632;SDS011;4354;49.832;10.746;2022-08-23T10:50:38;2.58;;;1.50;;
8632;SDS011;4354;49.832;10.746;2022-08-23T10:53:21;2.25;;;1.27;;
8632;SDS011;4354;49.832;10.746;2022-08-23T10:55:55;2.10;;;1.30;;
8632;SDS011;4354;49.832;10.746;2022-08-23T10:58:31;2.55;;;1.10;;
8632;SDS011;4354;49.832;10.746;2022-08-23T11:01:20;3.67;;;1.15;;
8632;SDS011;4354;49.832;10.746;2022-08-23T11:03:59;2.15;;;0.95;;
8632;SDS011;4354;49.832;10.746;2022-08-23T11:12:06;3.05;;;1.13;;
8632;SDS011;4354;49.832;10.746;2022-08-23T11:26:04;2.17;;;1.17;;
8632;SDS011;4354;49.832;10.746;2022-08-23T11:28:38;1.50;;;0.93;;
8632;SDS011;4354;49.832;10.746;2022-08-23T11:40:00;1.42;;;0.93;;
8632;SDS011;4354;49.832;10.746;2022-08-23T11:42:50;2.38;;;0.90;;
8632;SDS011;4354;49.832;10.746;2022-08-23T11:54:04;1.45;;;1.00;;
8632;SDS011;4354;49.832;10.746;2022-08-23T12:08:43;0.90;;;0.60;;
8632;SDS011;4354;49.832;10.746;2022-08-23T12:19:41;2.40;;;0.90;;
8632;SDS011;4354;49.832;10.746;2022-08-23T12:22:21;0.90;;;0.80;;
8632;SDS011;4354;49.832;10.746;2022-08-23T12:30:04;1.20;;;1.00;;
8632;SDS011;4354;49.832;10.746;2022-08-23T12:40:54;2.13;;;0.80;;
8632;SDS011;4354;49.832;10.746;2022-08-23T12:43:23;1.63;;;1.20;;
8632;SDS011;4354;49.832;10.746;2022-08-23T12:45:53;2.38;;;1.10;;
8632;SDS011;4354;49.832;10.746;2022-08-23T12:48:31;1.50;;;0.80;;
8632;SDS011;4354;49.832;10.746;2022-08-23T12:51:05;1.25;;;1.10;;
8632;SDS011;4354;49.832;10.746;2022-08-23T12:53:37;3.45;;;1.20;;
8632;SDS011;4354;49.832;10.746;2022-08-23T12:58:43;1.40;;;0.80;;
8632;SDS011;4354;49.832;10.746;2022-08-23T13:01:21;3.00;;;1.10;;
8632;SDS011;4354;49.832;10.746;2022-08-23T13:03:58;1.88;;;1.30;;
8632;SDS011;4354;49.832;10.746;2022-08-23T13:06:37;1.75;;;1.20;;
8632;SDS011;4354;49.832;10.746;2022-08-23T13:12:01;3.22;;;1.20;;
8632;SDS011;4354;49.832;10.746;2022-08-23T13:14:34;1.40;;;1.20;;
8632;SDS011;4354;49.832;10.746;2022-08-23T13:19:45;1.60;;;1.27;;
8632;SDS011;4354;49.832;10.746;2022-08-23T13:24:56;1.60;;;1.20;;
8632;SDS011;4354;49.832;10.746;2022-08-23T13:27:50;1.30;;;1.20;;
8632;SDS011;4354;49.832;10.746;2022-08-23T13:30:23;1.77;;;1.30;;
8632;SDS011;4354;49.832;10.746;2022-08-23T13:40:58;4.25;;;1.10;;
8632;SDS011;4354;49.832;10.746;2022-08-23T13:43:30;2.05;;;1.30;;
8632;SDS011;4354;49.832;10.746;2022-08-23T13:53:53;1.25;;;1.10;;
8632;SDS011;4354;49.832;10.746;2022-08-23T13:56:21;1.25;;;1.10;;
8632;SDS011;4354;49.832;10.746;2022-08-23T13:59:24;2.00;;;1.17;;
8632;SDS011;4354;49.832;10.746;2022-08-23T14:02:00;2.95;;;1.20;;
8632;SDS011;4354;49.832;10.746;2022-08-23T14:04:30;2.20;;;1.30;;
8632;SDS011;4354;49.832;10.746;2022-08-23T14:06:58;1.95;;;1.20;;
8632;SDS011;4354;49.832;10.746;2022-08-23T14:09:25;1.25;;;1.10;;
8632;SDS011;4354;49.832;10.746;2022-08-23T14:11:53;1.00;;;0.90;;
8632;SDS011;4354;49.832;10.746;2022-08-23T14:14:24;1.48;;;1.10;;
8632;SDS011;4354;49.832;10.746;2022-08-23T14:16:52;2.03;;;1.17;;
8632;SDS011;4354;49.832;10.746;2022-08-23T14:19:19;2.08;;;1.30;;
8632;SDS011;4354;49.832;10.746;2022-08-23T14:22:06;1.58;;;1.20;;
8632;SDS011;4354;49.832;10.746;2022-08-23T14:24:33;2.00;;;1.33;;
8632;SDS011;4354;49.832;10.746;2022-08-23T14:27:00;1.67;;;1.10;;
8632;SDS011;4354;49.832;10.746;2022-08-23T14:29:27;2.28;;;1.40;;
8632;SDS011;4354;49.832;10.746;2022-08-23T14:31:55;2.83;;;1.15;;
8632;SDS011;4354;49.832;10.746;2022-08-23T14:34:27;1.98;;;1.20;;
8632;SDS011;4354;49.832;10.746;2022-08-23T14:36:55;4.32;;;1.20;;
8632;SDS011;4354;49.832;10.746;2022-08-23T14:39:43;3.70;;;1.30;;
8632;SDS011;4354;49.832;10.746;2022-08-23T14:42:10;3.38;;;1.38;;
8632;SDS011;4354;49.832;10.746;2022-08-23T14:44:39;1.77;;;1.30;;
8632;SDS011;4354;49.832;10.746;2022-08-23T14:47:06;3.13;;;1.27;;
8632;SDS011;4354;49.832;10.746;2022-08-23T14:49:33;1.55;;;1.10;;
8632;SDS011;4354;49.832;10.746;2022-08-23T14:52:01;1.77;;;1.30;;
8632;SDS011;4354;49.832;10.746;2022-08-23T14:54:28;1.98;;;1.05;;
8632;SDS011;4354;49.832;10.746;2022-08-23T14:56:56;1.65;;;1.13;;
8632;SDS011;4354;49.832;10.746;2022-08-23T14:59:23;1.98;;;1.20;;
8632;SDS011;4354;49.832;10.746;2022-08-23T15:01:51;1.60;;;1.27;;
8632;SDS011;4354;49.832;10.746;2022-08-23T15:04:20;3.10;;;1.33;;
8632;SDS011;4354;49.832;10.746;2022-08-23T15:06:49;1.48;;;1.10;;
8632;SDS011;4354;49.832;10.746;2022-08-23T15:09:37;3.33;;;1.17;;
8632;SDS011;4354;49.832;10.746;2022-08-23T15:12:04;1.92;;;1.30;;
8632;SDS011;4354;49.832;10.746;2022-08-23T15:18:26;1.80;;;1.02;;
8632;SDS011;4354;49.832;10.746;2022-08-23T15:20:53;2.05;;;1.30;;
8632;SDS011;4354;49.832;10.746;2022-08-23T15:23:21;1.77;;;1.20;;
8632;SDS011;4354;49.832;10.746;2022-08-23T15:25:49;2.22;;;1.15;;
8632;SDS011;4354;49.832;10.746;2022-08-23T15:28:17;3.22;;;1.23;;
8632;SDS011;4354;49.832;10.746;2022-08-23T15:30:46;3.80;;;1.20;;
8632;SDS011;4354;49.832;10.746;2022-08-23T15:33:14;2.17;;;1.10;;
8632;SDS011;4354;49.832;10.746;2022-08-23T15:35:46;1.75;;;1.25;;
8632;SDS011;4354;49.832;10.746;2022-08-23T15:38:21;2.05;;;1.20;;
8632;SDS011;4354;49.832;10.746;2022-08-23T15:40:50;2.50;;;1.30;;
8632;SDS011;4354;49.832;10.746;2022-08-23T15:43:19;2.20;;;1.40;;
8632;SDS011;4354;49.832;10.746;2022-08-23T15:45:49;3.75;;;1.48;;
8632;SDS011;4354;49.832;10.746;2022-08-23T15:48:24;2.35;;;1.00;;
8632;SDS011;4354;49.832;10.746;2022-08-23T15:50:54;2.47;;;1.42;;
8632;SDS011;4354;49.832;10.746;2022-08-23T15:53:24;2.22;;;1.30;;
8632;SDS011;4354;49.832;10.746;2022-08-23T15:55:51;3.25;;;1.40;;
8632;SDS011;4354;49.832;10.746;2022-08-23T15:58:20;1.58;;;1.20;;
8632;SDS011;4354;49.832;10.746;2022-08-23T16:00:50;3.45;;;1.30;;
8632;SDS011;4354;49.832;10.746;2022-08-23T16:03:18;2.20;;;1.20;;
8632;SDS011;4354;49.832;10.746;2022-08-23T16:05:48;2.25;;;1.30;;
8632;SDS011;4354;49.832;10.746;2022-08-23T16:08:19;1.95;;;1.25;;
8632;SDS011;4354;49.832;10.746;2022-08-23T16:10:52;3.90;;;1.38;;
8632;SDS011;4354;49.832;10.746;2022-08-23T16:13:20;1.50;;;1.30;;
8632;SDS011;4354;49.832;10.746;2022-08-23T16:15:48;1.38;;;1.02;;
8632;SDS011;4354;49.832;10.746;2022-08-23T16:18:16;2.38;;;1.35;;
8632;SDS011;4354;49.832;10.746;2022-08-23T16:20:43;1.58;;;1.30;;
8632;SDS011;4354;49.832;10.746;2022-08-23T16:23:11;1.80;;;1.20;;
8632;SDS011;4354;49.832;10.746;2022-08-23T16:25:38;1.30;;;1.10;;
8632;SDS011;4354;49.832;10.746;2022-08-23T16:28:06;3.42;;;1.20;;
8632;SDS011;4354;49.832;10.746;2022-08-23T16:30:34;1.85;;;1.25;;
8632;SDS011;4354;49.832;10.746;2022-08-23T16:33:01;5.38;;;1.40;;
8632;SDS011;4354;49.832;10.746;2022-08-23T16:35:29;2.40;;;1.15;;
8632;SDS011;4354;49.832;10.746;2022-08-23T16:37:56;1.30;;;1.00;;
8632;SDS011;4354;49.832;10.746;2022-08-23T16:40:22;2.80;;;1.20;;
8632;SDS011;4354;49.832;10.746;2022-08-23T16:42:49;2.05;;;1.10;;
8632;SDS011;4354;49.832;10.746;2022-08-23T16:45:18;4.97;;;1.45;;
8632;SDS011;4354;49.832;10.746;2022-08-23T16:47:52;5.30;;;1.30;;
8632;SDS011;4354;49.832;10.746;2022-08-23T16:50:20;1.23;;;1.13;;
8632;SDS011;4354;49.832;10.746;2022-08-23T16:52:47;2.08;;;1.20;;
8632;SDS011;4354;49.832;10.746;2022-08-23T16:55:14;2.95;;;1.30;;
8632;SDS011;4354;49.832;10.746;2022-08-23T16:57:41;1.92;;;1.10;;
8632;SDS011;4354;49.832;10.746;2022-08-23T17:00:08;2.67;;;1.15;;
8632;SDS011;4354;49.832;10.746;2022-08-23T17:02:39;2.78;;;1.10;;
8632;SDS011;4354;49.832;10.746;2022-08-23T17:05:08;1.20;;;1.05;;
8632;SDS011;4354;49.832;10.746;2022-08-23T17:07:36;3.08;;;1.33;;
8632;SDS011;4354;49.832;10.746;2022-08-23T17:10:04;1.33;;;1.15;;
8632;SDS011;4354;49.832;10.746;2022-08-23T17:12:35;1.35;;;1.25;;
8632;SDS011;4354;49.832;10.746;2022-08-23T17:15:04;1.33;;;1.10;;
8632;SDS011;4354;49.832;10.746;2022-08-23T17:17:33;2.47;;;1.10;;
8632;SDS011;4354;49.832;10.746;2022-08-23T17:20:01;1.38;;;1.27;;
8632;SDS011;4354;49.832;10.746;2022-08-23T17:22:31;2.20;;;1.00;;
8632;SDS011;4354;49.832;10.746;2022-08-23T17:24:58;1.98;;;1.52;;
8632;SDS011;4354;49.832;10.746;2022-08-23T17:27:25;2.25;;;1.38;;
8632;SDS011;4354;49.832;10.746;2022-08-23T17:29:52;1.85;;;1.48;;
8632;SDS011;4354;49.832;10.746;2022-08-23T17:32:20;2.47;;;1.50;;
8632;SDS011;4354;49.832;10.746;2022-08-23T17:34:47;1.52;;;1.40;;
8632;SDS011;4354;49.832;10.746;2022-08-23T17:37:17;1.50;;;1.40;;
8632;SDS011;4354;49.832;10.746;2022-08-23T17:39:46;2.88;;;1.42;;
8632;SDS011;4354;49.832;10.746;2022-08-23T17:42:14;2.03;;;1.40;;
8632;SDS011;4354;49.832;10.746;2022-08-23T17:44:42;2.80;;;1.45;;
8632;SDS011;4354;49.832;10.746;2022-08-23T17:47:12;1.42;;;1.20;;
8632;SDS011;4354;49.832;10.746;2022-08-23T17:49:42;1.00;;;1.00;;
8632;SDS011;4354;49.832;10.746;2022-08-23T17:52:10;5.75;;;1.60;;
8632;SDS011;4354;49.832;10.746;2022-08-23T17:54:38;2.30;;;1.27;;
8632;SDS011;4354;49.832;10.746;2022-08-23T17:57:07;1.88;;;1.10;;
8632;SDS011;4354;49.832;10.746;2022-08-23T17:59:35;1.35;;;1.10;;